<?xml version="1.0" encoding="UTF-8" standalone="no" ?>
<gpx xmlns="http://www.topografix.com/GPX/1/1" xmlns:xsi="http://www.w3.org/2001/XMLSchema-instance" xsi:schemaLocation="http://www.topografix.com/GPX/1/1 http://www.topografix.com/GPX/1/1/gpx.xsd" version="1.1" creator="VisuGPX - https://www.visugpx.com">
  <metadata>
    <name>eyne</name>
  </metadata>
  <trk>
    <name><![CDATA[petit bout on GPSies.com]]></name>
    <trkseg>
      <trkpt lat="42.47228" lon="2.11951">
        <ele>1950</ele>
        <time>2010-01-01T00:00:00Z</time>
      </trkpt>
      <trkpt lat="42.47231" lon="2.11948">
        <ele>1950</ele>
        <time>2010-01-01T00:00:01Z</time>
      </trkpt>
      <trkpt lat="42.47223" lon="2.11931">
        <ele>1950</ele>
        <time>2010-01-01T00:00:07Z</time>
      </trkpt>
      <trkpt lat="42.47214" lon="2.11923">
        <ele>1951</ele>
        <time>2010-01-01T00:00:11Z</time>
      </trkpt>
      <trkpt lat="42.47187" lon="2.11908">
        <ele>1954</ele>
        <time>2010-01-01T00:00:23Z</time>
      </trkpt>
      <trkpt lat="42.47174" lon="2.11907">
        <ele>1956</ele>
        <time>2010-01-01T00:00:28Z</time>
      </trkpt>
      <trkpt lat="42.47157" lon="2.11918">
        <ele>1959</ele>
        <time>2010-01-01T00:00:36Z</time>
      </trkpt>
      <trkpt lat="42.47148" lon="2.1192">
        <ele>1960</ele>
        <time>2010-01-01T00:00:39Z</time>
      </trkpt>
      <trkpt lat="42.47138" lon="2.11914">
        <ele>1960</ele>
        <time>2010-01-01T00:00:44Z</time>
      </trkpt>
      <trkpt lat="42.47137" lon="2.11914">
        <ele>1960</ele>
        <time>2010-01-01T00:00:44Z</time>
      </trkpt>
      <trkpt lat="42.47131" lon="2.1191">
        <ele>1960</ele>
        <time>2010-01-01T00:00:47Z</time>
      </trkpt>
      <trkpt lat="42.47118" lon="2.11907">
        <ele>1961</ele>
        <time>2010-01-01T00:00:52Z</time>
      </trkpt>
      <trkpt lat="42.47105" lon="2.11907">
        <ele>1962</ele>
        <time>2010-01-01T00:00:57Z</time>
      </trkpt>
      <trkpt lat="42.47089" lon="2.11901">
        <ele>1964</ele>
        <time>2010-01-01T00:01:04Z</time>
      </trkpt>
      <trkpt lat="42.47089" lon="2.119">
        <ele>1964</ele>
        <time>2010-01-01T00:01:04Z</time>
      </trkpt>
      <trkpt lat="42.47077" lon="2.11894">
        <ele>1965</ele>
        <time>2010-01-01T00:01:09Z</time>
      </trkpt>
      <trkpt lat="42.4707" lon="2.11885">
        <ele>1965</ele>
        <time>2010-01-01T00:01:13Z</time>
      </trkpt>
      <trkpt lat="42.47066" lon="2.11872">
        <ele>1966</ele>
        <time>2010-01-01T00:01:17Z</time>
      </trkpt>
      <trkpt lat="42.47064" lon="2.1186">
        <ele>1967</ele>
        <time>2010-01-01T00:01:21Z</time>
      </trkpt>
      <trkpt lat="42.47064" lon="2.11848">
        <ele>1967</ele>
        <time>2010-01-01T00:01:24Z</time>
      </trkpt>
      <trkpt lat="42.47069" lon="2.11825">
        <ele>1967</ele>
        <time>2010-01-01T00:01:32Z</time>
      </trkpt>
      <trkpt lat="42.47069" lon="2.11814">
        <ele>1967</ele>
        <time>2010-01-01T00:01:35Z</time>
      </trkpt>
      <trkpt lat="42.47064" lon="2.11805">
        <ele>1968</ele>
        <time>2010-01-01T00:01:38Z</time>
      </trkpt>
      <trkpt lat="42.47056" lon="2.11802">
        <ele>1969</ele>
        <time>2010-01-01T00:01:41Z</time>
      </trkpt>
      <trkpt lat="42.47025" lon="2.11803">
        <ele>1975</ele>
        <time>2010-01-01T00:01:54Z</time>
      </trkpt>
      <trkpt lat="42.47014" lon="2.11793">
        <ele>1976</ele>
        <time>2010-01-01T00:01:59Z</time>
      </trkpt>
      <trkpt lat="42.47008" lon="2.11782">
        <ele>1976</ele>
        <time>2010-01-01T00:02:03Z</time>
      </trkpt>
      <trkpt lat="42.4701" lon="2.11769">
        <ele>1977</ele>
        <time>2010-01-01T00:02:07Z</time>
      </trkpt>
      <trkpt lat="42.47023" lon="2.11738">
        <ele>1979</ele>
        <time>2010-01-01T00:02:18Z</time>
      </trkpt>
      <trkpt lat="42.47059" lon="2.11701">
        <ele>1984</ele>
        <time>2010-01-01T00:02:36Z</time>
      </trkpt>
      <trkpt lat="42.47084" lon="2.11673">
        <ele>1984</ele>
        <time>2010-01-01T00:02:49Z</time>
      </trkpt>
      <trkpt lat="42.47095" lon="2.11657">
        <ele>1982</ele>
        <time>2010-01-01T00:02:55Z</time>
      </trkpt>
      <trkpt lat="42.47113" lon="2.11628">
        <ele>1980</ele>
        <time>2010-01-01T00:03:06Z</time>
      </trkpt>
      <trkpt lat="42.47117" lon="2.11607">
        <ele>1982</ele>
        <time>2010-01-01T00:03:13Z</time>
      </trkpt>
      <trkpt lat="42.47116" lon="2.11579">
        <ele>1988</ele>
        <time>2010-01-01T00:03:21Z</time>
      </trkpt>
    </trkseg>
  </trk>
</gpx>